createdAt,value
2019-05-02T00:00:52.719Z,15.60
2019-05-02T00:03:26.411Z,15.60
2019-05-02T00:05:57.480Z,15.60
2019-05-02T00:08:32.989Z,15.50
2019-05-02T00:11:02.719Z,15.60
2019-05-02T00:13:34.103Z,15.60
2019-05-02T00:16:09.049Z,15.50
2019-05-02T00:18:39.061Z,15.50
2019-05-02T00:21:11.082Z,15.50
2019-05-02T00:23:42.489Z,15.60
2019-05-02T00:26:13.521Z,15.70
2019-05-02T00:28:49.873Z,15.70
2019-05-02T00:31:22.086Z,15.70
2019-05-02T00:33:53.149Z,15.70
2019-05-02T00:36:24.091Z,15.70
2019-05-02T00:38:55.405Z,15.70
2019-05-02T00:41:26.442Z,15.60
2019-05-02T00:43:57.370Z,15.50
2019-05-02T00:46:30.305Z,15.70
2019-05-02T00:49:02.316Z,15.60
2019-05-02T00:51:33.542Z,15.50
2019-05-02T00:54:04.997Z,15.40
2019-05-02T00:56:40.234Z,15.40
2019-05-02T00:59:08.928Z,15.40
2019-05-02T01:02:00.008Z,15.40
2019-05-02T01:04:34.888Z,15.50
2019-05-02T01:07:08.071Z,15.60
2019-05-02T01:09:42.222Z,15.70
2019-05-02T01:12:25.901Z,15.80
2019-05-02T01:14:47.236Z,15.80
2019-05-02T01:17:18.119Z,15.90
2019-05-02T01:19:51.485Z,15.90
2019-05-02T01:22:21.905Z,15.90
2019-05-02T01:24:52.844Z,15.90
2019-05-02T01:27:36.170Z,15.90
2019-05-02T01:30:41.837Z,15.90
2019-05-02T01:33:41.829Z,15.90
2019-05-02T01:36:18.093Z,15.80
2019-05-02T01:38:50.116Z,15.60
2019-05-02T01:41:24.063Z,15.50
2019-05-02T01:43:54.981Z,15.50
2019-05-02T01:46:26.283Z,15.60
2019-05-02T01:48:57.139Z,15.70
2019-05-02T01:51:28.168Z,15.60
2019-05-02T01:53:59.115Z,15.60
2019-05-02T01:56:33.151Z,15.60
2019-05-02T01:59:02.672Z,15.60
2019-05-02T02:01:33.588Z,15.60
2019-05-02T02:04:05.366Z,15.70
2019-05-02T02:06:38.751Z,15.70
2019-05-02T02:09:09.856Z,15.70
2019-05-02T02:11:41.007Z,15.90
2019-05-02T02:14:18.003Z,15.90
2019-05-02T02:16:45.448Z,16.10
2019-05-02T02:19:21.667Z,16.00
2019-05-02T02:22:08.814Z,15.90
2019-05-02T02:24:43.054Z,15.70
2019-05-02T02:27:14.360Z,15.60
2019-05-02T02:29:45.411Z,15.50
2019-05-02T02:32:26.753Z,15.50
2019-05-02T02:34:53.044Z,15.50
2019-05-02T02:37:24.136Z,15.60
2019-05-02T02:39:56.488Z,15.70
2019-05-02T02:42:31.636Z,15.70
2019-05-02T02:45:06.394Z,15.80
2019-05-02T02:47:37.321Z,15.80
2019-05-02T02:50:08.724Z,15.80
2019-05-02T02:52:44.688Z,15.80
2019-05-02T02:55:22.258Z,15.90
2019-05-02T02:57:49.759Z,16.00
2019-05-02T03:00:21.226Z,16.00
2019-05-02T03:02:52.209Z,16.00
2019-05-02T03:05:26.203Z,16.00
2019-05-02T03:07:59.598Z,16.00
2019-05-02T03:10:30.307Z,15.90
2019-05-02T03:13:25.906Z,15.80
2019-05-02T03:16:07.209Z,15.90
2019-05-02T03:18:39.492Z,15.80
2019-05-02T03:21:06.072Z,15.80
2019-05-02T03:23:37.361Z,15.80
2019-05-02T03:26:15.291Z,15.80
2019-05-02T03:28:41.470Z,15.80
2019-05-02T03:31:23.648Z,15.80
2019-05-02T03:33:54.887Z,15.80
2019-05-02T03:36:29.265Z,15.90
2019-05-02T03:38:51.651Z,15.80
2019-05-02T03:41:23.666Z,15.80
2019-05-02T03:44:09.729Z,15.80
2019-05-02T03:46:27.834Z,15.90
2019-05-02T03:49:06.820Z,15.80
2019-05-02T03:51:31.530Z,15.90
2019-05-02T03:54:07.638Z,15.90
2019-05-02T03:56:34.973Z,15.90
2019-05-02T03:59:06.095Z,15.90
2019-05-02T04:01:41.495Z,15.80
2019-05-02T04:04:14.135Z,15.80
2019-05-02T04:06:43.340Z,15.60
2019-05-02T04:09:39.076Z,15.50
2019-05-02T04:12:11.828Z,15.60
2019-05-02T04:14:39.669Z,15.60
2019-05-02T04:17:11.853Z,15.50
2019-05-02T04:19:43.287Z,15.50
2019-05-02T04:22:15.214Z,15.50
2019-05-02T04:24:54.382Z,15.50
2019-05-02T04:27:18.800Z,15.40
2019-05-02T04:29:51.060Z,15.50
2019-05-02T04:32:21.972Z,15.50
2019-05-02T04:34:55.775Z,15.40
2019-05-02T04:37:25.469Z,15.40
2019-05-02T04:40:03.031Z,15.40
2019-05-02T04:42:31.665Z,15.50
2019-05-02T04:45:21.390Z,15.50
2019-05-02T04:47:54.571Z,15.50
2019-05-02T04:50:24.994Z,15.50
2019-05-02T04:52:53.768Z,15.50
2019-05-02T04:55:30.346Z,15.30
2019-05-02T04:57:58.838Z,15.30
2019-05-02T05:00:29.531Z,15.30
2019-05-02T05:03:00.428Z,15.30
2019-05-02T05:05:33.128Z,15.40
2019-05-02T05:08:04.120Z,15.40
2019-05-02T05:10:40.679Z,15.50
2019-05-02T05:13:11.996Z,15.50
2019-05-02T05:15:48.531Z,15.50
2019-05-02T05:18:14.611Z,15.50
2019-05-02T05:20:52.760Z,15.50
2019-05-02T05:23:28.652Z,15.50
2019-05-02T05:26:03.489Z,15.60
2019-05-02T05:28:35.105Z,15.60
2019-05-02T05:31:07.504Z,15.50
2019-05-02T05:33:37.892Z,15.60
2019-05-02T05:36:12.354Z,15.60
2019-05-02T05:38:43.267Z,15.70
2019-05-02T05:41:17.250Z,15.80
2019-05-02T05:43:50.119Z,15.80
2019-05-02T05:46:19.926Z,15.90
2019-05-02T05:48:51.009Z,15.90
2019-05-02T05:51:22.093Z,15.90
2019-05-02T05:53:59.052Z,15.90
2019-05-02T05:56:27.970Z,15.90
2019-05-02T05:58:59.208Z,15.90
2019-05-02T06:01:33.956Z,16.00
2019-05-02T06:04:03.451Z,16.00
2019-05-02T06:06:34.362Z,16.10
2019-05-02T06:09:08.165Z,16.20
2019-05-02T06:11:39.413Z,16.30
2019-05-02T06:14:10.382Z,16.30
2019-05-02T06:16:41.634Z,16.50
2019-05-02T06:19:17.928Z,16.50
2019-05-02T06:21:46.817Z,16.50
2019-05-02T06:24:17.786Z,16.60
2019-05-02T06:26:51.843Z,16.80
2019-05-02T06:29:22.933Z,16.80
2019-05-02T06:31:53.866Z,16.80
2019-05-02T06:34:25.016Z,16.80
2019-05-02T06:36:56.020Z,16.90
2019-05-02T06:39:31.844Z,16.90
2019-05-02T06:41:59.622Z,16.80
2019-05-02T06:44:31.019Z,16.80
2019-05-02T06:47:04.350Z,16.80
2019-05-02T06:49:34.522Z,16.80
2019-05-02T06:52:05.980Z,16.90
2019-05-02T06:54:37.258Z,17.00
2019-05-02T06:57:08.606Z,17.10
2019-05-02T06:59:39.731Z,17.20
2019-05-02T07:02:11.232Z,17.30
2019-05-02T07:04:42.510Z,17.30
2019-05-02T07:07:13.859Z,16.50
2019-05-02T07:09:45.247Z,17.10
2019-05-02T07:12:16.812Z,17.10
2019-05-02T07:14:49.221Z,17.00
2019-05-02T07:17:39.588Z,17.10
2019-05-02T07:20:11.908Z,17.10
2019-05-02T07:22:53.953Z,17.30
2019-05-02T07:25:25.235Z,17.60
2019-05-02T07:27:56.689Z,17.70
2019-05-02T07:30:30.093Z,17.60
2019-05-02T07:33:02.418Z,17.70
2019-05-02T07:35:55.276Z,17.80
2019-05-02T07:38:27.467Z,17.90
2019-05-02T07:40:58.531Z,18.00
2019-05-02T07:43:29.693Z,18.20
2019-05-02T07:46:00.979Z,18.20
2019-05-02T07:48:32.190Z,18.30
2019-05-02T07:51:03.491Z,18.40
2019-05-02T07:53:34.302Z,18.10
2019-05-02T07:56:05.732Z,18.00
2019-05-02T07:58:38.426Z,18.10
2019-05-02T08:01:13.441Z,18.10
2019-05-02T08:03:42.719Z,18.20
2019-05-02T08:06:14.024Z,18.30
2019-05-02T08:08:45.065Z,18.20
2019-05-02T08:11:16.094Z,18.30
2019-05-02T08:13:49.497Z,18.20
2019-05-02T08:16:22.328Z,18.00
2019-05-02T08:18:53.137Z,18.10
2019-05-02T08:21:27.308Z,18.30
2019-05-02T08:23:57.137Z,18.50
2019-05-02T08:26:45.764Z,18.70
2019-05-02T08:29:16.923Z,18.50
2019-05-02T08:31:48.469Z,18.60
2019-05-02T08:34:29.438Z,18.20
2019-05-02T08:37:03.322Z,18.80
2019-05-02T08:39:35.343Z,18.90
2019-05-02T08:42:07.027Z,18.90
2019-05-02T08:44:50.194Z,18.60
2019-05-02T08:47:18.623Z,18.30
2019-05-02T08:49:43.730Z,18.40
2019-05-02T08:52:15.899Z,18.60
2019-05-02T08:54:46.941Z,18.70
2019-05-02T08:57:18.009Z,18.80
2019-05-02T08:59:49.089Z,19.00
2019-05-02T09:02:21.131Z,18.80
2019-05-02T09:04:58.593Z,18.90
2019-05-02T09:07:25.835Z,18.80
2019-05-02T09:10:00.281Z,18.80
2019-05-02T09:12:29.279Z,19.00
2019-05-02T09:15:00.272Z,19.00
2019-05-02T09:17:37.689Z,19.00
2019-05-02T09:20:10.589Z,19.10
2019-05-02T09:22:36.511Z,19.10
2019-05-02T09:25:08.997Z,19.10
2019-05-02T09:27:41.927Z,18.80
2019-05-02T09:30:17.047Z,18.80
2019-05-02T09:32:45.930Z,18.80
2019-05-02T09:35:17.209Z,18.70
2019-05-02T09:37:48.427Z,18.70
2019-05-02T09:40:22.037Z,18.70
2019-05-02T09:42:57.645Z,18.60
2019-05-02T09:45:35.782Z,18.40
2019-05-02T09:48:07.966Z,18.00
2019-05-02T09:50:38.486Z,18.00
2019-05-02T09:53:14.872Z,18.10
2019-05-02T09:55:50.257Z,18.30
2019-05-02T09:58:21.042Z,18.30
2019-05-02T10:01:03.564Z,18.60
2019-05-02T10:03:34.775Z,18.60
2019-05-02T10:06:08.326Z,18.30
2019-05-02T10:08:43.519Z,18.80
2019-05-02T10:11:11.966Z,18.90
2019-05-02T10:13:43.002Z,19.30
2019-05-02T10:16:18.048Z,19.00
2019-05-02T10:18:48.141Z,18.80
2019-05-02T10:21:19.298Z,19.10
2019-05-02T10:23:59.020Z,19.20
2019-05-02T10:26:24.759Z,18.90
2019-05-02T10:28:56.102Z,19.10
2019-05-02T10:31:27.680Z,19.30
2019-05-02T10:34:02.220Z,19.30
2019-05-02T10:36:34.439Z,19.60
2019-05-02T10:39:07.524Z,19.70
2019-05-02T10:41:39.953Z,19.30
2019-05-02T10:44:12.824Z,19.20
2019-05-02T10:47:12.803Z,19.40
2019-05-02T10:49:57.515Z,19.40
2019-05-02T10:52:30.087Z,19.50
2019-05-02T10:55:02.677Z,19.30
2019-05-02T10:57:35.531Z,19.70
2019-05-02T11:00:09.203Z,19.70
2019-05-02T11:03:02.622Z,19.80
2019-05-02T11:05:37.223Z,19.80
2019-05-02T11:08:07.761Z,19.80
2019-05-02T11:10:38.625Z,20.00
2019-05-02T11:13:18.223Z,19.90
2019-05-02T11:16:08.809Z,19.80
2019-05-02T11:19:08.260Z,19.60
2019-05-02T11:21:46.757Z,19.30
2019-05-02T11:24:14.346Z,19.70
2019-05-02T11:26:45.468Z,19.90
2019-05-02T11:29:16.562Z,20.00
2019-05-02T11:31:47.427Z,19.50
2019-05-02T11:34:18.432Z,19.40
2019-05-02T11:36:49.490Z,20.00
2019-05-02T11:39:31.383Z,20.40
2019-05-02T11:41:53.558Z,20.00
2019-05-02T11:44:24.499Z,19.80
2019-05-02T11:46:56.492Z,20.00
2019-05-02T11:49:27.401Z,20.20
2019-05-02T11:52:01.568Z,20.20
2019-05-02T11:54:32.064Z,20.70
2019-05-02T11:57:03.780Z,20.80
2019-05-02T11:59:35.888Z,21.00
2019-05-02T12:02:24.768Z,20.50
2019-05-02T12:04:55.960Z,20.40
2019-05-02T12:07:27.379Z,20.50
2019-05-02T12:09:58.295Z,20.70
2019-05-02T12:12:34.332Z,20.90
2019-05-02T12:15:02.549Z,20.90
2019-05-02T12:17:34.111Z,21.10
2019-05-02T12:20:07.154Z,20.60
2019-05-02T12:22:38.006Z,21.00
2019-05-02T12:25:12.469Z,20.80
2019-05-02T12:27:43.396Z,20.50
2019-05-02T12:30:14.879Z,20.60
2019-05-02T12:32:45.869Z,20.80
2019-05-02T12:35:17.155Z,20.90
2019-05-02T12:37:52.408Z,21.50
2019-05-02T12:40:21.725Z,20.90
2019-05-02T12:42:53.067Z,20.50
2019-05-02T12:45:24.145Z,20.90
2019-05-02T12:48:14.115Z,21.10
2019-05-02T12:50:45.233Z,20.70
2019-05-02T12:53:16.294Z,20.70
2019-05-02T12:55:47.390Z,20.90
2019-05-02T12:58:18.582Z,20.70
2019-05-02T13:00:49.513Z,20.40
2019-05-02T13:03:48.343Z,20.40
2019-05-02T13:06:21.945Z,20.30
2019-05-02T13:08:53.102Z,20.30
2019-05-02T13:11:49.089Z,20.00
2019-05-02T13:14:25.074Z,20.10
2019-05-02T13:17:01.386Z,19.90
2019-05-02T13:19:38.064Z,20.00
2019-05-02T13:22:12.572Z,20.20
2019-05-02T13:24:47.037Z,20.30
2019-05-02T13:27:19.317Z,20.20
2019-05-02T13:29:52.392Z,20.50
2019-05-02T13:32:42.748Z,20.50
2019-05-02T13:35:37.059Z,20.30
2019-05-02T13:38:09.551Z,20.90
2019-05-02T13:40:45.129Z,21.30
2019-05-02T13:43:16.461Z,21.20
2019-05-02T13:46:12.604Z,21.40
2019-05-02T13:48:46.321Z,21.10
2019-05-02T13:51:17.332Z,20.90
2019-05-02T13:53:57.576Z,20.90
2019-05-02T13:56:48.244Z,21.10
2019-05-02T13:59:22.256Z,20.50
2019-05-02T14:01:54.906Z,20.70
2019-05-02T14:04:25.971Z,20.20
2019-05-02T14:06:57.706Z,20.20
2019-05-02T14:09:41.236Z,19.80
2019-05-02T14:12:23.138Z,20.00
2019-05-02T14:14:54.321Z,19.90
2019-05-02T14:17:25.648Z,19.80
2019-05-02T14:20:10.010Z,19.90
2019-05-02T14:22:30.158Z,20.10
2019-05-02T14:25:01.947Z,20.00
2019-05-02T14:27:33.618Z,20.00
2019-05-02T14:30:07.002Z,20.30
2019-05-02T14:32:38.115Z,20.30
2019-05-02T14:35:28.328Z,20.30
2019-05-02T14:38:13.256Z,20.00
2019-05-02T14:40:57.019Z,19.90
2019-05-02T14:43:53.205Z,19.70
2019-05-02T14:46:34.249Z,19.80
2019-05-02T14:49:02.557Z,19.70
2019-05-02T14:51:36.461Z,19.70
2019-05-02T14:54:08.343Z,19.80
2019-05-02T14:56:47.778Z,19.90
2019-05-02T14:59:19.809Z,19.90
2019-05-02T15:01:57.830Z,20.70
2019-05-02T15:04:26.867Z,21.20
2019-05-02T15:06:58.198Z,20.80
2019-05-02T15:09:29.481Z,20.30
2019-05-02T15:12:03.016Z,20.10
2019-05-02T15:14:35.668Z,20.10
2019-05-02T15:17:07.507Z,19.70
2019-05-02T15:19:38.378Z,19.10
2019-05-02T15:22:09.636Z,19.00
2019-05-02T15:24:42.375Z,18.90
2019-05-02T15:27:17.698Z,19.30
2019-05-02T15:29:46.355Z,19.10
2019-05-02T15:32:37.175Z,19.20
2019-05-02T15:35:39.986Z,19.30
2019-05-02T15:38:16.687Z,19.50
2019-05-02T15:40:50.017Z,19.40
2019-05-02T15:43:16.505Z,18.90
2019-05-02T15:45:47.937Z,19.00
2019-05-02T15:48:25.573Z,18.90
2019-05-02T15:50:52.935Z,18.80
2019-05-02T15:53:32.856Z,18.50
2019-05-02T15:56:03.964Z,18.50
2019-05-02T15:58:36.229Z,18.50
2019-05-02T16:01:23.572Z,18.60
2019-05-02T16:03:55.470Z,18.80
2019-05-02T16:06:31.650Z,18.80
2019-05-02T16:08:58.923Z,18.80
2019-05-02T16:11:32.071Z,18.80
2019-05-02T16:14:02.807Z,18.80
2019-05-02T16:16:36.747Z,18.70
2019-05-02T16:19:08.366Z,18.70
2019-05-02T16:21:59.531Z,18.80
2019-05-02T16:24:29.022Z,18.90
2019-05-02T16:27:01.619Z,18.50
2019-05-02T16:29:32.844Z,18.80
2019-05-02T16:32:22.709Z,18.70
2019-05-02T16:35:07.378Z,18.80
2019-05-02T16:37:36.758Z,18.60
2019-05-02T16:40:09.149Z,18.40
2019-05-02T16:42:41.877Z,18.40
2019-05-02T16:45:13.832Z,18.50
2019-05-02T16:47:45.000Z,18.60
2019-05-02T16:50:18.653Z,18.70
2019-05-02T16:52:49.584Z,18.50
2019-05-02T16:55:26.137Z,18.60
2019-05-02T16:57:56.873Z,18.60
2019-05-02T17:00:26.657Z,18.50
2019-05-02T17:02:57.727Z,18.50
2019-05-02T17:05:28.684Z,18.40
2019-05-02T17:08:20.142Z,18.40
2019-05-02T17:11:01.965Z,18.40
2019-05-02T17:13:35.641Z,18.30
2019-05-02T17:16:13.139Z,18.40
2019-05-02T17:18:38.633Z,18.30
2019-05-02T17:21:09.770Z,18.20
2019-05-02T17:23:42.928Z,18.10
2019-05-02T17:26:13.661Z,18.00
2019-05-02T17:28:47.151Z,17.70
2019-05-02T17:31:20.545Z,17.60
2019-05-02T17:33:50.936Z,17.60
2019-05-02T17:36:28.527Z,17.80
2019-05-02T17:38:59.410Z,17.80
2019-05-02T17:41:29.432Z,17.80
2019-05-02T17:44:00.388Z,17.80
2019-05-02T17:46:31.810Z,17.90
2019-05-02T17:49:03.016Z,17.90
2019-05-02T17:52:04.749Z,17.60
2019-05-02T17:54:26.289Z,17.40
2019-05-02T17:56:59.152Z,17.30
2019-05-02T17:59:36.037Z,17.30
2019-05-02T18:02:06.753Z,17.20
2019-05-02T18:04:38.249Z,17.40
2019-05-02T18:07:11.513Z,17.50
2019-05-02T18:09:42.314Z,17.20
2019-05-02T18:12:16.182Z,17.20
2019-05-02T18:14:46.397Z,17.20
2019-05-02T18:17:17.369Z,17.00
2019-05-02T18:19:49.143Z,16.90
2019-05-02T18:22:24.227Z,16.70
2019-05-02T18:24:53.425Z,16.70
2019-05-02T18:27:24.762Z,16.70
2019-05-02T18:29:56.314Z,16.60
2019-05-02T18:32:27.960Z,16.60
2019-05-02T18:35:04.275Z,16.60
2019-05-02T18:37:37.146Z,16.70
2019-05-02T18:40:06.307Z,16.80
2019-05-02T18:42:38.220Z,16.70
2019-05-02T18:45:12.900Z,16.60
2019-05-02T18:47:44.620Z,16.50
2019-05-02T18:50:44.552Z,16.40
2019-05-02T18:53:13.814Z,16.50
2019-05-02T18:55:45.487Z,16.50
2019-05-02T18:58:16.564Z,16.40
2019-05-02T19:00:47.972Z,16.40
2019-05-02T19:03:19.149Z,16.40
2019-05-02T19:05:51.712Z,16.40
2019-05-02T19:08:31.121Z,16.40
2019-05-02T19:11:06.027Z,16.40
2019-05-02T19:13:32.157Z,16.30
2019-05-02T19:16:02.615Z,16.30
2019-05-02T19:18:34.171Z,16.30
2019-05-02T19:21:06.211Z,16.20
2019-05-02T19:23:39.444Z,16.30
2019-05-02T19:26:15.055Z,16.30
2019-05-02T19:29:14.293Z,16.30
2019-05-02T19:31:47.311Z,16.30
2019-05-02T19:34:22.810Z,16.10
2019-05-02T19:36:52.994Z,16.30
2019-05-02T19:39:26.191Z,16.30
2019-05-02T19:41:57.361Z,16.30
2019-05-02T19:44:34.223Z,16.30
2019-05-02T19:47:08.211Z,16.40
2019-05-02T19:49:39.172Z,16.40
2019-05-02T19:52:12.820Z,16.40
2019-05-02T19:54:44.527Z,16.40
2019-05-02T19:57:17.195Z,16.40
2019-05-02T19:59:48.916Z,16.20
2019-05-02T20:02:22.175Z,16.30
2019-05-02T20:04:53.281Z,16.40
2019-05-02T20:07:24.373Z,16.50
2019-05-02T20:09:55.515Z,16.50
2019-05-02T20:12:26.493Z,16.50
2019-05-02T20:14:57.704Z,16.60
2019-05-02T20:17:28.851Z,16.50
2019-05-02T20:20:05.482Z,16.50
2019-05-02T20:22:40.989Z,16.30
2019-05-02T20:25:12.360Z,16.30
2019-05-02T20:27:42.937Z,16.40
2019-05-02T20:30:14.464Z,16.50
2019-05-02T20:32:45.666Z,16.40
2019-05-02T20:35:17.096Z,16.10
2019-05-02T20:37:48.598Z,16.10
2019-05-02T20:40:31.892Z,16.20
2019-05-02T20:43:03.186Z,16.40
2019-05-02T20:45:35.905Z,16.30
2019-05-02T20:48:07.093Z,16.30
2019-05-02T20:50:38.078Z,16.20
2019-05-02T20:53:14.826Z,16.30
2019-05-02T20:55:46.319Z,16.40
2019-05-02T20:58:17.333Z,16.40
2019-05-02T21:00:48.848Z,16.50
2019-05-02T21:03:19.995Z,16.50
2019-05-02T21:06:18.964Z,16.60
2019-05-02T21:09:12.098Z,16.60
2019-05-02T21:11:50.105Z,16.60
2019-05-02T21:14:21.682Z,16.50
2019-05-02T21:16:53.018Z,16.40
2019-05-02T21:19:24.182Z,16.40
2019-05-02T21:21:56.813Z,16.40
2019-05-02T21:24:28.415Z,16.50
2019-05-02T21:27:01.941Z,16.50
2019-05-02T21:29:33.510Z,16.30
2019-05-02T21:32:06.391Z,16.30
2019-05-02T21:34:37.805Z,16.30
2019-05-02T21:37:09.159Z,16.30
2019-05-02T21:39:42.429Z,16.30
2019-05-02T21:42:13.337Z,16.20
2019-05-02T21:44:44.627Z,16.30
2019-05-02T21:47:15.876Z,16.40
2019-05-02T21:50:02.719Z,16.30
2019-05-02T21:52:56.701Z,16.40
2019-05-02T21:55:58.793Z,16.30
2019-05-02T21:58:32.223Z,16.30
2019-05-02T22:01:08.289Z,16.50
2019-05-02T22:03:40.394Z,16.50
2019-05-02T22:06:12.672Z,16.60
2019-05-02T22:08:43.887Z,16.60
2019-05-02T22:11:15.878Z,16.50
2019-05-02T22:13:48.390Z,16.30
2019-05-02T22:16:19.676Z,16.20
2019-05-02T22:18:52.149Z,16.20
2019-05-02T22:21:23.634Z,16.30
2019-05-02T22:24:07.541Z,16.30
2019-05-02T22:26:28.164Z,16.20
2019-05-02T22:29:01.817Z,16.20
2019-05-02T22:31:34.018Z,16.30
2019-05-02T22:34:16.351Z,16.20
2019-05-02T22:36:49.076Z,16.30
2019-05-02T22:39:44.822Z,16.20
2019-05-02T22:42:16.660Z,16.20
2019-05-02T22:44:48.856Z,16.30
2019-05-02T22:47:20.164Z,16.50
2019-05-02T22:49:51.909Z,16.50
2019-05-02T22:52:22.959Z,16.40
2019-05-02T22:54:54.322Z,16.30
2019-05-02T22:57:25.319Z,16.30
2019-05-02T22:59:56.760Z,16.40
2019-05-02T23:02:27.904Z,16.40
2019-05-02T23:04:59.242Z,16.40
2019-05-02T23:07:30.543Z,16.40
2019-05-02T23:10:02.336Z,16.50
2019-05-02T23:12:33.536Z,16.60
2019-05-02T23:15:04.819Z,16.50
2019-05-02T23:17:36.043Z,16.50
2019-05-02T23:20:07.361Z,16.60
2019-05-02T23:22:38.529Z,16.50
2019-05-02T23:25:28.928Z,16.50
2019-05-02T23:28:07.473Z,16.40
2019-05-02T23:30:39.081Z,16.30
2019-05-02T23:33:10.034Z,16.30
2019-05-02T23:35:43.000Z,16.20
2019-05-02T23:38:14.467Z,16.30
2019-05-02T23:40:47.307Z,16.30
2019-05-02T23:43:18.363Z,16.40
2019-05-02T23:45:51.607Z,16.50
2019-05-02T23:48:22.837Z,16.50
2019-05-02T23:50:54.343Z,16.60
2019-05-02T23:53:25.214Z,16.50
2019-05-02T23:55:56.237Z,16.50
2019-05-02T23:58:27.559Z,16.50
